Time;durP1;ratioP1;P1;durP2;ratioP2;P2;SDS_P1;SDS_P2;PMS_P1;PMS_P2;Temp;Humidity;BMP_temperature;BMP_pressure;BME280_temperature;BME280_humidity;BME280_pressure;Samples;Min_cycle;Max_cycle;Signal;HPM_P1;HPM_P2
2021/04/14 00:02:25;;;;;;;10.25;8.35;;;;;;;;;;5003528;28;20187;-85
2021/04/14 00:04:51;;;;;;;8.30;7.50;;;;;;;;;;5005966;28;20182;-85
2021/04/14 00:07:17;;;;;;;8.38;7.45;;;;;;;;;;5015245;28;20183;-84
2021/04/14 00:09:44;;;;;;;8.35;6.93;;;;;;;;;;5000182;28;20195;-82
2021/04/14 00:12:11;;;;;;;8.55;7.70;;;;;;;;;;4992537;28;20270;-85
2021/04/14 00:14:37;;;;;;;11.68;8.75;;;;;;;;;;4993642;28;20183;-85
2021/04/14 00:17:03;;;;;;;8.85;7.70;;;;;;;;;;4997174;28;20218;-85
2021/04/14 00:19:30;;;;;;;8.65;7.75;;;;;;;;;;4991980;28;20180;-85
2021/04/14 00:21:56;;;;;;;10.15;8.20;;;;;;;;;;4995734;28;20231;-85
2021/04/14 00:24:22;;;;;;;9.45;7.18;;;;;;;;;;5012862;28;20187;-86
2021/04/14 00:26:48;;;;;;;10.23;7.82;;;;;;;;;;4996152;28;20270;-85
2021/04/14 00:29:14;;;;;;;9.20;6.88;;;;;;;;;;4995033;28;20233;-85
2021/04/14 00:31:40;;;;;;;9.55;8.35;;;;;;;;;;4995701;28;20184;-85
2021/04/14 00:34:07;;;;;;;8.35;7.55;;;;;;;;;;5003456;28;20238;-85
2021/04/14 00:36:34;;;;;;;10.05;7.72;;;;;;;;;;5002394;28;20709;-85
2021/04/14 00:39:01;;;;;;;10.75;8.63;;;;;;;;;;4995665;28;20191;-85
2021/04/14 00:41:28;;;;;;;9.88;7.90;;;;;;;;;;5003515;28;20221;-85
2021/04/14 00:43:55;;;;;;;11.75;7.60;;;;;;;;;;5001401;28;20235;-85
2021/04/14 00:46:21;;;;;;;9.27;7.05;;;;;;;;;;4994753;28;20184;-85
2021/04/14 00:48:47;;;;;;;9.82;7.80;;;;;;;;;;5012525;28;20191;-85
2021/04/14 00:51:13;;;;;;;9.07;7.13;;;;;;;;;;5004801;28;20186;-85
2021/04/14 00:53:39;;;;;;;10.98;7.95;;;;;;;;;;5005196;28;20197;-84
2021/04/14 00:56:06;;;;;;;9.48;7.03;;;;;;;;;;4995899;28;20183;-84
2021/04/14 00:58:32;;;;;;;8.55;7.75;;;;;;;;;;5013092;28;20233;-85
2021/04/14 01:00:58;;;;;;;9.40;7.80;;;;;;;;;;5009152;28;20202;-85
2021/04/14 01:03:31;;;;;;;8.35;7.50;;;;;;;;;;5010730;28;20215;-86
2021/04/14 01:05:57;;;;;;;9.52;7.65;;;;;;;;;;5004004;28;20175;-85
2021/04/14 01:08:23;;;;;;;12.77;8.80;;;;;;;;;;4994419;28;20257;-85
2021/04/14 01:10:50;;;;;;;9.27;7.43;;;;;;;;;;4997687;28;20653;-84
2021/04/14 01:13:16;;;;;;;9.50;8.60;;;;;;;;;;5004835;28;20183;-86
2021/04/14 01:15:44;;;;;;;9.65;7.95;;;;;;;;;;5003947;28;20187;-85
2021/04/14 01:18:12;;;;;;;11.25;7.80;;;;;;;;;;4996758;28;20226;-85
2021/04/14 01:20:38;;;;;;;7.93;7.20;;;;;;;;;;5003327;28;20210;-85
2021/04/14 01:23:05;;;;;;;9.48;8.45;;;;;;;;;;5004985;28;20225;-85
2021/04/14 01:25:34;;;;;;;8.98;7.43;;;;;;;;;;4997067;28;20239;-85
2021/04/14 01:28:00;;;;;;;11.88;8.07;;;;;;;;;;4997419;28;20704;-85
2021/04/14 01:30:28;;;;;;;8.98;8.18;;;;;;;;;;5003442;28;20287;-85
2021/04/14 01:32:54;;;;;;;11.10;7.55;;;;;;;;;;5001958;28;20218;-86
2021/04/14 01:35:21;;;;;;;9.38;8.18;;;;;;;;;;4999227;28;20191;-84
2021/04/14 01:37:51;;;;;;;11.30;8.38;;;;;;;;;;5005547;28;20533;-86
2021/04/14 01:40:18;;;;;;;9.02;8.10;;;;;;;;;;4995918;28;20251;-86
2021/04/14 01:42:44;;;;;;;8.27;7.47;;;;;;;;;;4999197;28;20182;-85
2021/04/14 01:45:11;;;;;;;8.50;7.60;;;;;;;;;;4996289;28;20613;-86
2021/04/14 01:47:37;;;;;;;8.90;8.10;;;;;;;;;;5003989;28;20194;-86
2021/04/14 01:50:03;;;;;;;9.10;8.02;;;;;;;;;;5004106;28;20179;-86
2021/04/14 01:52:29;;;;;;;9.80;8.75;;;;;;;;;;5015991;28;20241;-85
2021/04/14 01:54:55;;;;;;;9.48;7.75;;;;;;;;;;4995542;28;20183;-85
2021/04/14 01:57:21;;;;;;;10.50;7.45;;;;;;;;;;5002334;28;20538;-84
2021/04/14 01:59:48;;;;;;;8.43;7.53;;;;;;;;;;4993333;28;20180;-85
2021/04/14 02:02:14;;;;;;;11.32;8.38;;;;;;;;;;5001798;28;20676;-85
2021/04/14 02:04:40;;;;;;;9.82;7.88;;;;;;;;;;5001516;28;20172;-86
2021/04/14 02:07:06;;;;;;;9.13;8.23;;;;;;;;;;5002645;28;20621;-85
2021/04/14 02:09:32;;;;;;;9.77;8.77;;;;;;;;;;5003329;28;20198;-84
2021/04/14 02:11:58;;;;;;;10.27;8.88;;;;;;;;;;5003611;28;20183;-83
2021/04/14 02:14:24;;;;;;;11.98;9.57;;;;;;;;;;4993277;28;20234;-85
2021/04/14 02:16:50;;;;;;;9.77;8.55;;;;;;;;;;5000632;28;20589;-83
2021/04/14 02:19:17;;;;;;;9.32;8.48;;;;;;;;;;5001591;28;20283;-85
2021/04/14 02:21:43;;;;;;;9.43;8.43;;;;;;;;;;4998988;28;20215;-86
2021/04/14 02:24:09;;;;;;;9.80;8.85;;;;;;;;;;4998689;28;20188;-85
2021/04/14 02:26:35;;;;;;;9.48;8.05;;;;;;;;;;5002191;28;20194;-85
2021/04/14 02:29:01;;;;;;;10.23;9.18;;;;;;;;;;5002821;28;20246;-85
2021/04/14 02:31:30;;;;;;;15.25;10.05;;;;;;;;;;5000563;28;20187;-85
2021/04/14 02:33:58;;;;;;;11.77;9.07;;;;;;;;;;4998858;28;20183;-85
2021/04/14 02:36:24;;;;;;;13.95;9.75;;;;;;;;;;5003354;28;20190;-86
2021/04/14 02:38:50;;;;;;;11.63;8.45;;;;;;;;;;4996572;28;20180;-86
2021/04/14 02:41:16;;;;;;;10.93;8.93;;;;;;;;;;5013453;28;20214;-85
2021/04/14 02:43:42;;;;;;;9.70;8.77;;;;;;;;;;5001209;28;20715;-86
2021/04/14 02:46:08;;;;;;;12.35;9.73;;;;;;;;;;5006884;28;20191;-86
2021/04/14 02:48:34;;;;;;;14.52;8.70;;;;;;;;;;5002277;28;20187;-86
2021/04/14 02:51:00;;;;;;;11.48;9.45;;;;;;;;;;4992126;28;20250;-85
2021/04/14 02:53:26;;;;;;;12.30;9.23;;;;;;;;;;4996352;28;20250;-86
2021/04/14 02:55:52;;;;;;;9.68;8.63;;;;;;;;;;5004745;28;20218;-85
2021/04/14 02:58:18;;;;;;;11.73;8.60;;;;;;;;;;5004414;28;20219;-85
2021/04/14 03:00:44;;;;;;;11.18;9.50;;;;;;;;;;5007442;28;20233;-85
2021/04/14 03:03:10;;;;;;;13.25;10.77;;;;;;;;;;4999217;28;20279;-86
2021/04/14 03:05:36;;;;;;;13.40;10.57;;;;;;;;;;5006323;28;20684;-85
2021/04/14 03:08:03;;;;;;;15.70;9.90;;;;;;;;;;5017751;28;20197;-85
2021/04/14 03:10:29;;;;;;;13.23;9.52;;;;;;;;;;5014690;28;20190;-85
2021/04/14 03:12:55;;;;;;;13.38;9.68;;;;;;;;;;5008961;28;20191;-85
2021/04/14 03:15:23;;;;;;;12.25;10.05;;;;;;;;;;5002726;28;20263;-85
2021/04/14 03:17:49;;;;;;;12.52;10.40;;;;;;;;;;5005206;28;20281;-86
2021/04/14 03:20:15;;;;;;;12.75;9.65;;;;;;;;;;5006634;28;20198;-85
2021/04/14 03:22:41;;;;;;;10.00;8.95;;;;;;;;;;4998086;28;20287;-85
2021/04/14 03:25:08;;;;;;;11.02;8.90;;;;;;;;;;5004700;28;20187;-85
2021/04/14 03:27:34;;;;;;;12.93;9.75;;;;;;;;;;5003542;28;20187;-85
2021/04/14 03:30:00;;;;;;;15.48;10.30;;;;;;;;;;4992759;28;20211;-84
2021/04/14 03:32:26;;;;;;;10.48;9.27;;;;;;;;;;5002320;28;20194;-85
2021/04/14 03:34:52;;;;;;;12.32;8.52;;;;;;;;;;4995345;28;20179;-85
2021/04/14 03:37:18;;;;;;;13.25;10.25;;;;;;;;;;5006950;28;20186;-86
2021/04/14 03:39:44;;;;;;;9.50;8.40;;;;;;;;;;5001958;28;20221;-85
2021/04/14 03:42:10;;;;;;;11.20;9.93;;;;;;;;;;5006651;28;20229;-85
2021/04/14 03:44:37;;;;;;;13.18;11.25;;;;;;;;;;5004728;28;20184;-85
2021/04/14 03:47:04;;;;;;;11.45;9.68;;;;;;;;;;5011685;28;20167;-84
2021/04/14 03:49:30;;;;;;;12.60;9.52;;;;;;;;;;4999294;28;20180;-86
2021/04/14 03:51:56;;;;;;;12.57;10.50;;;;;;;;;;4998086;28;20188;-86
2021/04/14 03:54:23;;;;;;;11.95;10.55;;;;;;;;;;4998598;28;20195;-85
2021/04/14 03:56:50;;;;;;;10.70;9.55;;;;;;;;;;5015340;28;20190;-85
2021/04/14 03:59:16;;;;;;;11.38;10.13;;;;;;;;;;5000295;28;20278;-85
2021/04/14 04:01:42;;;;;;;11.48;9.38;;;;;;;;;;5006322;28;20237;-84
2021/04/14 04:04:08;;;;;;;12.18;9.32;;;;;;;;;;5001030;28;20653;-85
2021/04/14 04:06:34;;;;;;;11.35;9.23;;;;;;;;;;4999945;28;20350;-85
2021/04/14 04:08:59;;;;;;;12.15;9.68;;;;;;;;;;5001832;28;20210;-85
2021/04/14 04:11:26;;;;;;;12.75;9.98;;;;;;;;;;5001335;28;20187;-85
2021/04/14 04:13:52;;;;;;;17.23;10.73;;;;;;;;;;5006058;28;20192;-84
2021/04/14 04:16:18;;;;;;;11.30;9.25;;;;;;;;;;5000108;28;20183;-83
2021/04/14 04:18:44;;;;;;;11.55;9.98;;;;;;;;;;5004020;28;20250;-85
2021/04/14 04:21:11;;;;;;;11.35;9.82;;;;;;;;;;5011452;28;20243;-85
2021/04/14 04:23:37;;;;;;;11.73;9.50;;;;;;;;;;5002566;28;20537;-85
2021/04/14 04:26:04;;;;;;;12.38;11.00;;;;;;;;;;4995573;28;20778;-84
2021/04/14 04:28:30;;;;;;;14.73;9.90;;;;;;;;;;5006695;28;20652;-85
2021/04/14 04:30:57;;;;;;;12.60;9.93;;;;;;;;;;4999600;28;20215;-85
2021/04/14 04:33:23;;;;;;;11.45;9.57;;;;;;;;;;5005272;28;20197;-84
2021/04/14 04:35:49;;;;;;;13.65;10.18;;;;;;;;;;4995106;28;20202;-86
2021/04/14 04:38:15;;;;;;;11.40;10.25;;;;;;;;;;4998760;28;20509;-85
2021/04/14 04:40:41;;;;;;;13.88;10.00;;;;;;;;;;5005330;28;20691;-85
2021/04/14 04:43:08;;;;;;;12.98;11.02;;;;;;;;;;4994718;28;20183;-85
2021/04/14 04:45:34;;;;;;;11.90;9.50;;;;;;;;;;5004331;28;20186;-84
2021/04/14 04:48:01;;;;;;;9.77;8.88;;;;;;;;;;5002892;28;20269;-85
2021/04/14 04:50:28;;;;;;;13.13;9.10;;;;;;;;;;4997148;28;20241;-85
2021/04/14 04:52:57;;;;;;;11.65;9.73;;;;;;;;;;5003016;28;20203;-83
2021/04/14 04:55:23;;;;;;;11.55;9.10;;;;;;;;;;5003768;28;20559;-85
2021/04/14 04:57:50;;;;;;;12.85;10.27;;;;;;;;;;5002539;28;20183;-85
2021/04/14 05:00:17;;;;;;;17.15;10.35;;;;;;;;;;5002732;28;20179;-85
2021/04/14 05:02:43;;;;;;;10.45;9.07;;;;;;;;;;5001101;28;20194;-84
2021/04/14 05:05:11;;;;;;;13.60;10.93;;;;;;;;;;5005061;28;20183;-84
2021/04/14 05:07:37;;;;;;;13.35;11.25;;;;;;;;;;5001485;28;20191;-84
2021/04/14 05:10:04;;;;;;;13.05;11.30;;;;;;;;;;5004435;28;20183;-86
2021/04/14 05:12:30;;;;;;;11.20;9.85;;;;;;;;;;5000608;28;20237;-84
2021/04/14 05:14:56;;;;;;;13.98;10.45;;;;;;;;;;4993080;28;20536;-85
2021/04/14 05:17:22;;;;;;;12.30;10.23;;;;;;;;;;4997263;28;20183;-85
2021/04/14 05:19:48;;;;;;;11.30;10.20;;;;;;;;;;5006066;28;20187;-85
2021/04/14 05:22:14;;;;;;;13.95;10.10;;;;;;;;;;5004787;28;20345;-85
2021/04/14 05:24:40;;;;;;;13.48;9.63;;;;;;;;;;4999806;28;20198;-83
2021/04/14 05:27:06;;;;;;;12.70;10.65;;;;;;;;;;4998191;28;20184;-85
2021/04/14 05:29:32;;;;;;;13.70;10.32;;;;;;;;;;5003019;28;20222;-85
2021/04/14 05:31:58;;;;;;;14.27;10.63;;;;;;;;;;5000303;28;20180;-85
2021/04/14 05:34:24;;;;;;;13.40;11.23;;;;;;;;;;5003138;28;20644;-84
2021/04/14 05:36:52;;;;;;;15.63;10.55;;;;;;;;;;4996887;28;20225;-84
2021/04/14 05:39:18;;;;;;;12.90;10.93;;;;;;;;;;5000478;28;20556;-85
2021/04/14 05:41:44;;;;;;;12.02;9.13;;;;;;;;;;5002865;28;20210;-85
2021/04/14 05:44:10;;;;;;;13.63;10.70;;;;;;;;;;5001007;28;20541;-85
2021/04/14 05:46:36;;;;;;;13.88;11.25;;;;;;;;;;4997025;28;20175;-84
2021/04/14 05:49:03;;;;;;;12.55;10.60;;;;;;;;;;5000327;28;20194;-83
2021/04/14 05:51:29;;;;;;;12.70;10.40;;;;;;;;;;5002941;28;20191;-82
2021/04/14 05:53:56;;;;;;;13.45;10.55;;;;;;;;;;5017833;28;20190;-82
2021/04/14 05:56:22;;;;;;;12.82;11.30;;;;;;;;;;5010086;28;20546;-82
2021/04/14 05:58:48;;;;;;;13.30;11.50;;;;;;;;;;5003148;28;20188;-82
2021/04/14 06:01:16;;;;;;;12.35;10.57;;;;;;;;;;5003047;28;20210;-82
2021/04/14 06:03:42;;;;;;;13.20;11.25;;;;;;;;;;4999044;28;20223;-82
2021/04/14 06:06:08;;;;;;;13.60;10.93;;;;;;;;;;4994228;28;20259;-82
2021/04/14 06:08:34;;;;;;;14.13;10.95;;;;;;;;;;5003347;28;20185;-83
2021/04/14 06:11:00;;;;;;;13.13;11.57;;;;;;;;;;5001307;28;20270;-84
2021/04/14 06:13:27;;;;;;;15.32;11.52;;;;;;;;;;5003031;28;20186;-84
2021/04/14 06:15:54;;;;;;;14.85;11.30;;;;;;;;;;4999617;28;20413;-80
2021/04/14 06:18:20;;;;;;;11.98;10.70;;;;;;;;;;4995659;28;20218;-84
2021/04/14 06:20:46;;;;;;;14.60;11.77;;;;;;;;;;5008215;28;20199;-83
2021/04/14 06:23:17;;;;;;;15.55;12.32;;;;;;;;;;4996594;28;20198;-83
2021/04/14 06:28:29;;;;;;;14.73;11.77;;;;;;;;;;5000763;28;20225;-83
2021/04/14 06:30:55;;;;;;;14.95;11.50;;;;;;;;;;4999821;28;20183;-83
2021/04/14 06:33:22;;;;;;;16.63;11.32;;;;;;;;;;4995909;28;20245;-82
2021/04/14 06:35:49;;;;;;;14.55;12.50;;;;;;;;;;4998685;28;20183;-85
2021/04/14 06:38:19;;;;;;;14.02;12.00;;;;;;;;;;5000888;28;20225;-83
2021/04/14 06:43:46;;;;;;;15.15;13.00;;;;;;;;;;5003577;28;20202;-83
2021/04/14 06:46:17;;;;;;;14.90;12.95;;;;;;;;;;5003283;28;20190;-83
2021/04/14 06:48:50;;;;;;;16.05;12.55;;;;;;;;;;5000362;28;20214;-83
2021/04/14 06:51:35;;;;;;;16.60;13.30;;;;;;;;;;4999003;28;20206;-84
2021/04/14 06:54:04;;;;;;;19.60;14.52;;;;;;;;;;4993406;28;20183;-83
2021/04/14 06:56:31;;;;;;;17.92;14.15;;;;;;;;;;5003050;28;20183;-84
2021/04/14 06:59:02;;;;;;;17.75;13.63;;;;;;;;;;5004367;28;20207;-83
2021/04/14 07:01:36;;;;;;;30.15;14.43;;;;;;;;;;4999483;28;20282;-83
2021/04/14 07:04:07;;;;;;;21.13;14.18;;;;;;;;;;4998993;28;20266;-82
2021/04/14 07:06:34;;;;;;;15.88;13.20;;;;;;;;;;4999868;28;20672;-84
2021/04/14 07:09:08;;;;;;;15.98;12.55;;;;;;;;;;4995846;28;20261;-84
2021/04/14 07:11:34;;;;;;;17.50;12.82;;;;;;;;;;4991440;28;20187;-85
2021/04/14 07:14:00;;;;;;;18.73;12.98;;;;;;;;;;4999648;28;20182;-83
2021/04/14 07:16:37;;;;;;;16.52;13.35;;;;;;;;;;4999574;28;20180;-83
2021/04/14 07:19:16;;;;;;;15.43;12.98;;;;;;;;;;4998662;28;20186;-83
2021/04/14 07:21:42;;;;;;;15.75;13.10;;;;;;;;;;5011358;28;20207;-82
2021/04/14 07:24:20;;;;;;;14.98;12.20;;;;;;;;;;4996849;28;20187;-83
2021/04/14 07:26:49;;;;;;;14.63;12.95;;;;;;;;;;4992323;28;20240;-83
2021/04/14 07:29:27;;;;;;;15.55;13.45;;;;;;;;;;5005405;28;20226;-83
2021/04/14 07:31:52;;;;;;;19.88;13.57;;;;;;;;;;4989322;28;20656;-83
2021/04/14 07:34:30;;;;;;;16.50;12.20;;;;;;;;;;5006260;28;20175;-85
2021/04/14 07:37:00;;;;;;;17.63;12.13;;;;;;;;;;5001868;28;20452;-82
2021/04/14 07:39:32;;;;;;;14.85;10.70;;;;;;;;;;5004463;28;20186;-83
2021/04/14 07:42:10;;;;;;;14.55;10.43;;;;;;;;;;4990346;28;20258;-83
2021/04/14 07:44:40;;;;;;;12.63;10.70;;;;;;;;;;4993011;28;20179;-85
2021/04/14 07:47:11;;;;;;;13.15;10.93;;;;;;;;;;4998746;28;20194;-82
2021/04/14 07:49:37;;;;;;;13.05;11.50;;;;;;;;;;4996782;28;20202;-83
2021/04/14 07:52:06;;;;;;;14.77;11.55;;;;;;;;;;5000594;28;20226;-84
2021/04/14 07:54:40;;;;;;;13.15;11.02;;;;;;;;;;5004507;28;20282;-82
2021/04/14 07:57:06;;;;;;;15.45;13.07;;;;;;;;;;5004903;28;20209;-84
2021/04/14 07:59:33;;;;;;;16.20;12.13;;;;;;;;;;5005007;28;20191;-82
2021/04/14 08:01:59;;;;;;;14.60;11.63;;;;;;;;;;5002087;28;20642;-85
2021/04/14 08:04:40;;;;;;;14.03;12.37;;;;;;;;;;5000272;28;20263;-84
2021/04/14 08:07:08;;;;;;;14.25;11.68;;;;;;;;;;5000130;28;20435;-84
2021/04/14 08:09:34;;;;;;;14.40;13.00;;;;;;;;;;4993308;28;20260;-83
2021/04/14 08:12:05;;;;;;;14.85;12.68;;;;;;;;;;5003353;28;20532;-82
2021/04/14 08:14:36;;;;;;;11.98;10.77;;;;;;;;;;5008446;28;20183;-81
2021/04/14 08:17:13;;;;;;;13.15;11.55;;;;;;;;;;4993386;28;20247;-83
2021/04/14 08:19:39;;;;;;;12.10;9.20;;;;;;;;;;5004192;28;20191;-84
2021/04/14 08:22:10;;;;;;;15.50;10.68;;;;;;;;;;5004656;28;20214;-80
2021/04/14 08:24:40;;;;;;;14.10;10.45;;;;;;;;;;5003292;28;20190;-82
2021/04/14 08:27:15;;;;;;;13.07;10.90;;;;;;;;;;5002083;28;20198;-81
2021/04/14 08:29:41;;;;;;;11.70;9.55;;;;;;;;;;5016643;28;20280;-82
2021/04/14 08:32:14;;;;;;;15.85;10.43;;;;;;;;;;5019257;28;20175;-84
2021/04/14 08:34:41;;;;;;;10.90;9.85;;;;;;;;;;5003684;28;20179;-82
2021/04/14 08:37:13;;;;;;;10.52;9.45;;;;;;;;;;5000628;28;20276;-82
2021/04/14 08:39:49;;;;;;;12.23;10.02;;;;;;;;;;5009562;28;20255;-86
2021/04/14 08:42:35;;;;;;;13.50;10.73;;;;;;;;;;5014050;28;20210;-84
2021/04/14 08:45:04;;;;;;;11.82;10.00;;;;;;;;;;5008402;28;20641;-82
2021/04/14 08:47:31;;;;;;;10.85;9.75;;;;;;;;;;5002355;28;20183;-83
2021/04/14 08:50:00;;;;;;;11.95;8.60;;;;;;;;;;5001011;28;20175;-85
2021/04/14 08:52:27;;;;;;;12.77;8.38;;;;;;;;;;4998707;28;20218;-82
2021/04/14 08:54:54;;;;;;;11.90;8.80;;;;;;;;;;5000267;28;20198;-80
2021/04/14 08:57:21;;;;;;;11.93;9.93;;;;;;;;;;4998948;28;20270;-82
2021/04/14 08:59:47;;;;;;;13.25;8.93;;;;;;;;;;4996546;28;20190;-83
2021/04/14 09:02:16;;;;;;;10.68;9.35;;;;;;;;;;5000874;28;20210;-85
2021/04/14 09:04:43;;;;;;;10.32;9.23;;;;;;;;;;5001801;28;20680;-82
2021/04/14 09:07:09;;;;;;;10.20;8.60;;;;;;;;;;4995241;28;20190;-80
2021/04/14 09:09:44;;;;;;;10.27;8.98;;;;;;;;;;5001283;28;20187;-80
2021/04/14 09:12:10;;;;;;;9.43;8.05;;;;;;;;;;4996778;28;20190;-81
2021/04/14 09:14:36;;;;;;;14.80;9.88;;;;;;;;;;5006095;28;20195;-86
2021/04/14 09:17:04;;;;;;;10.43;9.32;;;;;;;;;;4996300;28;20192;-83
2021/04/14 09:19:40;;;;;;;10.45;8.15;;;;;;;;;;4998890;28;20184;-83
2021/04/14 09:22:16;;;;;;;10.07;8.30;;;;;;;;;;5017784;28;20214;-83
2021/04/14 09:24:53;;;;;;;8.55;7.75;;;;;;;;;;4999287;28;20190;-83
2021/04/14 09:27:22;;;;;;;8.80;7.70;;;;;;;;;;5003340;28;20467;-83
2021/04/14 09:29:51;;;;;;;9.52;8.20;;;;;;;;;;4993108;28;20223;-83
2021/04/14 09:32:18;;;;;;;9.00;7.53;;;;;;;;;;4991955;28;20195;-82
2021/04/14 09:34:44;;;;;;;12.45;7.85;;;;;;;;;;4995132;28;20608;-82
2021/04/14 09:37:17;;;;;;;9.10;8.20;;;;;;;;;;4992389;28;20555;-82
2021/04/14 09:39:43;;;;;;;7.63;6.90;;;;;;;;;;4999304;28;20179;-82
2021/04/14 09:42:28;;;;;;;8.07;7.38;;;;;;;;;;4996645;28;20206;-84
2021/04/14 09:44:55;;;;;;;12.82;7.13;;;;;;;;;;5014800;28;20180;-82
2021/04/14 09:47:28;;;;;;;9.57;8.23;;;;;;;;;;5002327;28;20171;-81
2021/04/14 09:49:55;;;;;;;9.45;7.53;;;;;;;;;;5004128;28;20294;-82
2021/04/14 09:52:22;;;;;;;9.23;7.68;;;;;;;;;;5003626;28;20198;-82
2021/04/14 09:57:58;;;;;;;9.48;7.30;;;;;;;;;;4999006;28;20192;-84
2021/04/14 10:00:27;;;;;;;10.93;8.20;;;;;;;;;;4989912;28;20210;-80
2021/04/14 10:03:01;;;;;;;9.35;7.15;;;;;;;;;;5001367;28;20218;-82
2021/04/14 10:05:28;;;;;;;8.07;7.28;;;;;;;;;;5014821;28;20246;-85
2021/04/14 10:07:58;;;;;;;8.23;7.53;;;;;;;;;;5000364;28;20175;-81
2021/04/14 10:10:24;;;;;;;9.13;8.38;;;;;;;;;;4999552;28;20187;-85
2021/04/14 10:12:54;;;;;;;8.55;7.13;;;;;;;;;;4992676;28;20241;-85
2021/04/14 10:15:34;;;;;;;8.77;7.70;;;;;;;;;;4999049;28;20202;-81
2021/04/14 10:18:04;;;;;;;9.27;8.38;;;;;;;;;;5015199;28;20273;-83
2021/04/14 10:20:33;;;;;;;9.93;7.75;;;;;;;;;;4997980;28;20707;-82
2021/04/14 10:22:59;;;;;;;9.98;8.43;;;;;;;;;;4992574;28;20587;-83
2021/04/14 10:25:24;;;;;;;8.43;7.63;;;;;;;;;;5002223;28;20179;-82
2021/04/14 10:28:11;;;;;;;8.00;7.20;;;;;;;;;;4993112;28;20251;-83
2021/04/14 10:30:40;;;;;;;8.90;7.90;;;;;;;;;;4996853;28;20446;-81
2021/04/14 10:33:08;;;;;;;8.20;7.50;;;;;;;;;;4996246;28;20183;-81
2021/04/14 10:35:34;;;;;;;10.40;7.65;;;;;;;;;;5010812;28;20190;-85
2021/04/14 10:38:01;;;;;;;9.32;8.43;;;;;;;;;;4990587;28;20211;-81
2021/04/14 10:40:29;;;;;;;8.38;7.57;;;;;;;;;;5001830;28;20183;-82
2021/04/14 10:42:56;;;;;;;7.35;6.75;;;;;;;;;;4995608;28;20180;-85
2021/04/14 10:45:23;;;;;;;11.80;8.70;;;;;;;;;;4995846;28;20183;-80
2021/04/14 10:47:51;;;;;;;8.27;7.47;;;;;;;;;;5000437;28;20182;-85
2021/04/14 10:50:18;;;;;;;9.00;8.10;;;;;;;;;;5000777;28;20195;-80
2021/04/14 10:52:45;;;;;;;8.07;7.38;;;;;;;;;;5002723;28;20241;-83
2021/04/14 10:55:12;;;;;;;7.85;6.90;;;;;;;;;;5019742;28;20189;-83
2021/04/14 10:57:40;;;;;;;8.40;7.40;;;;;;;;;;4996774;28;20195;-80
2021/04/14 11:00:08;;;;;;;8.90;7.70;;;;;;;;;;5008446;28;20179;-84
2021/04/14 11:02:36;;;;;;;8.43;7.63;;;;;;;;;;4995273;28;20272;-81
2021/04/14 11:05:02;;;;;;;7.25;6.55;;;;;;;;;;5003593;28;20652;-82
2021/04/14 11:07:29;;;;;;;8.40;7.57;;;;;;;;;;5004729;28;20198;-86
2021/04/14 11:09:58;;;;;;;9.02;7.95;;;;;;;;;;5017231;28;20266;-83
2021/04/14 11:12:26;;;;;;;8.38;7.50;;;;;;;;;;4999137;28;20218;-82
2021/04/14 11:14:57;;;;;;;8.32;7.45;;;;;;;;;;4997807;28;20214;-80
2021/04/14 11:17:24;;;;;;;8.50;7.50;;;;;;;;;;4998271;28;20194;-81
2021/04/14 11:19:58;;;;;;;8.27;7.40;;;;;;;;;;5002488;28;20179;-83
2021/04/14 11:22:24;;;;;;;7.50;6.90;;;;;;;;;;5021698;28;20274;-81
2021/04/14 11:24:52;;;;;;;8.18;7.30;;;;;;;;;;5005489;28;20187;-80
2021/04/14 11:27:21;;;;;;;9.68;7.55;;;;;;;;;;5004643;28;20214;-84
2021/04/14 11:29:47;;;;;;;10.38;7.72;;;;;;;;;;5005578;28;20278;-83
2021/04/14 11:32:14;;;;;;;9.45;8.02;;;;;;;;;;5001179;28;20258;-82
2021/04/14 11:34:40;;;;;;;8.93;8.02;;;;;;;;;;5004930;28;20194;-83
2021/04/14 11:37:22;;;;;;;9.45;7.40;;;;;;;;;;5001441;28;20187;-83
2021/04/14 11:39:54;;;;;;;8.60;7.78;;;;;;;;;;4996199;28;20211;-84
2021/04/14 11:42:22;;;;;;;9.27;6.90;;;;;;;;;;5013363;28;20567;-85
2021/04/14 11:44:52;;;;;;;7.88;7.18;;;;;;;;;;5004440;28;20187;-82
2021/04/14 11:47:23;;;;;;;9.13;8.23;;;;;;;;;;4999773;28;20183;-84
2021/04/14 11:49:49;;;;;;;9.02;8.00;;;;;;;;;;5017167;28;20677;-85
2021/04/14 11:52:23;;;;;;;8.88;8.07;;;;;;;;;;5021348;28;20187;-83
2021/04/14 11:54:51;;;;;;;8.38;7.68;;;;;;;;;;5003901;28;20201;-80
2021/04/14 11:57:32;;;;;;;8.15;7.35;;;;;;;;;;4997683;28;20250;-82
2021/04/14 12:00:18;;;;;;;9.98;8.27;;;;;;;;;;4996246;28;20187;-83
2021/04/14 12:02:45;;;;;;;10.00;8.48;;;;;;;;;;5004552;28;20199;-82
2021/04/14 12:05:12;;;;;;;9.40;7.63;;;;;;;;;;5005254;28;20653;-84
2021/04/14 12:07:38;;;;;;;8.93;8.00;;;;;;;;;;5004096;28;20199;-82
2021/04/14 12:10:11;;;;;;;8.57;7.07;;;;;;;;;;5005671;28;20179;-83
2021/04/14 12:12:37;;;;;;;7.57;6.90;;;;;;;;;;5001108;28;20274;-83
2021/04/14 12:15:06;;;;;;;8.30;7.50;;;;;;;;;;4999517;28;20190;-80
2021/04/14 12:17:32;;;;;;;8.75;7.63;;;;;;;;;;5013353;28;20254;-80
2021/04/14 12:19:58;;;;;;;8.83;8.03;;;;;;;;;;5005573;28;20186;-81
2021/04/14 12:22:24;;;;;;;8.77;8.00;;;;;;;;;;5005267;28;20477;-86
2021/04/14 12:24:50;;;;;;;8.88;8.00;;;;;;;;;;5003719;28;20176;-83
2021/04/14 12:27:16;;;;;;;7.95;7.15;;;;;;;;;;5000967;28;20664;-81
2021/04/14 12:29:43;;;;;;;6.72;6.13;;;;;;;;;;5000141;28;20223;-85
2021/04/14 12:32:09;;;;;;;8.90;8.00;;;;;;;;;;5004487;28;20214;-84
2021/04/14 12:34:35;;;;;;;8.90;8.03;;;;;;;;;;5000426;28;20187;-83
2021/04/14 12:37:01;;;;;;;11.10;9.20;;;;;;;;;;5004605;28;20465;-85
2021/04/14 12:39:27;;;;;;;8.43;7.73;;;;;;;;;;5005179;28;20198;-86
2021/04/14 12:41:53;;;;;;;8.93;8.13;;;;;;;;;;4998358;28;20557;-86
2021/04/14 12:44:22;;;;;;;10.77;9.68;;;;;;;;;;4997249;28;20179;-86
2021/04/14 12:46:48;;;;;;;8.75;7.95;;;;;;;;;;5000077;28;20201;-87
2021/04/14 12:49:23;;;;;;;8.50;7.75;;;;;;;;;;4998632;28;20184;-85
2021/04/14 12:51:49;;;;;;;8.93;8.00;;;;;;;;;;5002612;28;20202;-85
2021/04/14 12:54:53;;;;;;;8.60;7.75;;;;;;;;;;4993952;28;20766;-88
2021/04/14 12:57:20;;;;;;;8.52;7.72;;;;;;;;;;4998394;28;20224;-85
2021/04/14 12:59:53;;;;;;;9.57;8.27;;;;;;;;;;5000555;28;20179;-83
2021/04/14 13:02:22;;;;;;;8.48;7.53;;;;;;;;;;4999106;28;20251;-84
2021/04/14 13:05:09;;;;;;;7.72;6.90;;;;;;;;;;5001534;28;20226;-83
2021/04/14 13:07:44;;;;;;;8.27;7.50;;;;;;;;;;5002612;28;20208;-83
2021/04/14 13:10:12;;;;;;;8.00;7.40;;;;;;;;;;5001006;28;20179;-84
2021/04/14 13:12:38;;;;;;;8.60;7.72;;;;;;;;;;5004286;28;20187;-85
2021/04/14 13:15:06;;;;;;;8.90;8.07;;;;;;;;;;4999575;28;20246;-87
2021/04/14 13:17:35;;;;;;;8.98;8.15;;;;;;;;;;4996531;28;20779;-88
2021/04/14 13:20:02;;;;;;;9.88;8.65;;;;;;;;;;5001139;28;20202;-83
2021/04/14 13:22:34;;;;;;;10.07;8.88;;;;;;;;;;5001598;28;20226;-84
2021/04/14 13:25:04;;;;;;;10.13;9.23;;;;;;;;;;4999574;28;20233;-87
2021/04/14 13:27:30;;;;;;;8.80;8.10;;;;;;;;;;5002377;28;20194;-88
2021/04/14 13:30:11;;;;;;;10.27;9.25;;;;;;;;;;5002097;28;20704;-83
2021/04/14 13:32:48;;;;;;;10.43;9.52;;;;;;;;;;5002345;28;20665;-84
2021/04/14 13:35:44;;;;;;;9.48;8.68;;;;;;;;;;4991020;28;20186;-85
2021/04/14 13:38:23;;;;;;;9.52;8.73;;;;;;;;;;4993405;28;20206;-85
2021/04/14 13:41:07;;;;;;;9.32;8.52;;;;;;;;;;4988067;28;20665;-84
2021/04/14 13:43:38;;;;;;;10.40;9.50;;;;;;;;;;5003098;28;20185;-83
2021/04/14 13:46:08;;;;;;;10.80;8.70;;;;;;;;;;5012887;28;20242;-86
2021/04/14 13:48:54;;;;;;;9.50;8.43;;;;;;;;;;4995844;28;20194;-84
2021/04/14 13:51:23;;;;;;;11.60;10.40;;;;;;;;;;5003931;28;20649;-85
2021/04/14 13:53:50;;;;;;;10.30;9.40;;;;;;;;;;4993163;28;20188;-84
2021/04/14 13:56:19;;;;;;;11.32;9.80;;;;;;;;;;4992871;28;20183;-85
2021/04/14 13:58:51;;;;;;;10.07;9.18;;;;;;;;;;4995006;28;20187;-83
2021/04/14 14:01:18;;;;;;;10.85;9.35;;;;;;;;;;5003516;28;20234;-86
2021/04/14 14:03:44;;;;;;;9.82;8.93;;;;;;;;;;4998816;28;20556;-83
2021/04/14 14:06:20;;;;;;;10.48;9.57;;;;;;;;;;4993772;28;20226;-84
2021/04/14 14:08:48;;;;;;;10.13;9.15;;;;;;;;;;4998868;28;20175;-82
2021/04/14 14:11:24;;;;;;;9.73;8.82;;;;;;;;;;4990479;28;20258;-83
2021/04/14 14:13:56;;;;;;;11.00;10.00;;;;;;;;;;4995829;28;20241;-80
2021/04/14 14:16:26;;;;;;;9.85;8.90;;;;;;;;;;4997058;28;20208;-84
2021/04/14 14:18:52;;;;;;;11.05;9.98;;;;;;;;;;5013521;28;20194;-82
2021/04/14 14:21:19;;;;;;;10.70;9.70;;;;;;;;;;5001043;28;20210;-84
2021/04/14 14:23:45;;;;;;;11.07;9.98;;;;;;;;;;4991698;28;20525;-83
2021/04/14 14:26:15;;;;;;;8.32;7.60;;;;;;;;;;4995513;28;20199;-83
2021/04/14 14:28:41;;;;;;;9.80;8.80;;;;;;;;;;4999382;28;20279;-81
2021/04/14 14:31:07;;;;;;;12.75;9.98;;;;;;;;;;4994862;28;20214;-82
2021/04/14 14:33:37;;;;;;;10.20;9.20;;;;;;;;;;4999449;28;20748;-85
2021/04/14 14:36:13;;;;;;;10.13;9.13;;;;;;;;;;4993419;28;20179;-82
2021/04/14 14:38:42;;;;;;;11.20;10.07;;;;;;;;;;4994504;28;20287;-83
2021/04/14 14:41:18;;;;;;;10.45;8.88;;;;;;;;;;4998484;28;20203;-81
2021/04/14 14:43:51;;;;;;;9.60;8.55;;;;;;;;;;4993192;28;20180;-83
2021/04/14 14:46:25;;;;;;;9.32;7.88;;;;;;;;;;4998428;28;20171;-82
2021/04/14 14:48:58;;;;;;;11.45;9.30;;;;;;;;;;5001604;28;20183;-83